createdAt,value
2018-11-25T00:00:31.398Z,2.14
2018-11-25T00:01:31.356Z,2.13
2018-11-25T00:02:31.373Z,2.17
2018-11-25T00:03:31.569Z,2.17
2018-11-25T00:04:31.336Z,2.15
2018-11-25T00:05:31.316Z,2.17
2018-11-25T00:06:31.400Z,2.26
2018-11-25T00:07:34.836Z,2.24
2018-11-25T00:08:31.321Z,2.15
2018-11-25T00:09:31.274Z,2.15
2018-11-25T00:10:31.274Z,2.18
2018-11-25T00:11:35.295Z,2.17
2018-11-25T00:12:31.239Z,2.17
2018-11-25T00:13:31.259Z,2.18
2018-11-25T00:14:31.246Z,2.24
2018-11-25T00:15:31.205Z,2.20
2018-11-25T00:16:31.198Z,2.18
2018-11-25T00:17:31.191Z,2.17
2018-11-25T00:18:31.177Z,2.10
2018-11-25T00:19:31.209Z,2.15
2018-11-25T00:20:31.206Z,2.15
2018-11-25T00:21:31.146Z,2.07
2018-11-25T00:22:31.135Z,2.10
2018-11-25T00:23:31.122Z,2.04
2018-11-25T00:24:31.113Z,2.04
2018-11-25T00:25:31.179Z,2.08
2018-11-25T00:26:31.121Z,2.08
2018-11-25T00:27:31.080Z,2.10
2018-11-25T00:28:31.072Z,2.13
2018-11-25T00:29:31.065Z,2.06
2018-11-25T00:30:31.050Z,2.04
2018-11-25T00:31:31.108Z,2.10
2018-11-25T00:32:31.064Z,2.07
2018-11-25T00:33:31.018Z,2.04
2018-11-25T00:34:31.008Z,2.07
2018-11-25T00:35:31.002Z,2.04
2018-11-25T00:36:30.987Z,2.10
2018-11-25T00:37:31.009Z,2.08
2018-11-25T00:38:31.002Z,2.07
2018-11-25T00:39:30.959Z,2.08
2018-11-25T00:40:30.959Z,2.10
2018-11-25T00:41:30.950Z,2.08
2018-11-25T00:42:30.927Z,2.06
2018-11-25T00:43:30.929Z,2.04
2018-11-25T00:44:30.936Z,2.08
2018-11-25T00:45:30.893Z,2.06
2018-11-25T00:46:30.883Z,2.04
2018-11-25T00:47:30.875Z,2.08
2018-11-25T00:48:30.864Z,2.06
2018-11-25T00:49:30.881Z,2.06
2018-11-25T00:50:30.889Z,2.06
2018-11-25T00:51:30.829Z,2.13
2018-11-25T00:52:30.820Z,2.08
2018-11-25T00:53:30.820Z,2.02
2018-11-25T00:54:30.815Z,2.07
2018-11-25T00:55:30.855Z,2.07
2018-11-25T00:56:30.808Z,2.07
2018-11-25T00:57:30.777Z,2.06
2018-11-25T00:58:30.761Z,2.08
2018-11-25T00:59:30.747Z,2.07
2018-11-25T01:00:30.738Z,2.06
2018-11-25T01:01:30.750Z,2.11
2018-11-25T01:02:30.755Z,2.04
2018-11-25T01:03:30.719Z,2.04
2018-11-25T01:04:30.693Z,2.10
2018-11-25T01:05:30.689Z,2.08
2018-11-25T01:06:30.676Z,2.07
2018-11-25T01:07:30.665Z,2.08
2018-11-25T01:08:30.722Z,2.08
2018-11-25T01:09:30.640Z,2.14
2018-11-25T01:10:30.850Z,2.14
2018-11-25T01:11:30.621Z,2.07
2018-11-25T01:12:30.614Z,2.08
2018-11-25T01:13:30.603Z,2.10
2018-11-25T01:14:30.640Z,2.04
2018-11-25T01:15:30.583Z,2.06
2018-11-25T01:16:30.568Z,2.08
2018-11-25T01:17:30.558Z,2.10
2018-11-25T01:18:30.548Z,2.08
2018-11-25T01:19:30.536Z,2.07
2018-11-25T01:20:30.571Z,2.10
2018-11-25T01:21:30.516Z,2.07
2018-11-25T01:22:30.514Z,2.07
2018-11-25T01:23:30.504Z,2.14
2018-11-25T01:24:30.486Z,2.07
2018-11-25T01:25:30.472Z,2.17
2018-11-25T01:26:30.512Z,2.10
2018-11-25T01:27:30.452Z,2.13
2018-11-25T01:28:30.442Z,2.11
2018-11-25T01:29:30.433Z,2.08
2018-11-25T01:30:30.425Z,2.06
2018-11-25T01:31:30.413Z,2.10
2018-11-25T01:32:30.569Z,2.20
2018-11-25T01:33:30.391Z,2.04
2018-11-25T01:34:30.381Z,2.10
2018-11-25T01:35:30.374Z,2.07
2018-11-25T01:36:30.362Z,2.13
2018-11-25T01:37:30.351Z,2.17
2018-11-25T01:38:30.401Z,2.15
2018-11-25T01:39:30.385Z,2.20
2018-11-25T01:40:30.319Z,2.06
2018-11-25T01:41:30.306Z,2.02
2018-11-25T01:42:30.296Z,2.11
2018-11-25T01:43:30.287Z,2.02
2018-11-25T01:44:30.308Z,2.11
2018-11-25T01:45:30.278Z,2.02
2018-11-25T01:46:30.276Z,2.02
2018-11-25T01:47:30.243Z,2.06
2018-11-25T01:48:30.232Z,2.02
2018-11-25T01:49:30.235Z,2.06
2018-11-25T01:50:30.244Z,2.11
2018-11-25T01:51:30.205Z,2.04
2018-11-25T01:52:30.200Z,2.07
2018-11-25T01:53:30.218Z,2.07
2018-11-25T01:54:30.185Z,2.08
2018-11-25T01:55:30.160Z,2.07
2018-11-25T01:56:30.201Z,2.04
2018-11-25T01:57:30.138Z,2.10
2018-11-25T01:58:30.130Z,2.04
2018-11-25T01:59:30.141Z,2.10
2018-11-25T02:00:30.107Z,2.10
2018-11-25T02:01:30.100Z,2.14
2018-11-25T02:02:30.122Z,2.11
2018-11-25T02:03:30.077Z,2.07
2018-11-25T02:04:30.077Z,2.04
2018-11-25T02:05:30.062Z,2.00
2018-11-25T02:06:30.048Z,2.04
2018-11-25T02:07:30.035Z,2.02
2018-11-25T02:08:30.065Z,1.97
2018-11-25T02:09:30.015Z,2.02
2018-11-25T02:10:30.006Z,2.02
2018-11-25T02:11:30.020Z,1.94
2018-11-25T02:12:29.996Z,1.91
2018-11-25T02:13:29.974Z,1.92
2018-11-25T02:14:30.014Z,1.95
2018-11-25T02:15:29.950Z,1.92
2018-11-25T02:16:29.958Z,1.95
2018-11-25T02:17:29.934Z,2.00
2018-11-25T02:18:29.926Z,1.89
2018-11-25T02:19:29.961Z,1.91
2018-11-25T02:20:29.930Z,1.97
2018-11-25T02:21:29.892Z,1.99
2018-11-25T02:22:29.885Z,1.99
2018-11-25T02:23:29.872Z,1.92
2018-11-25T02:24:29.905Z,1.89
2018-11-25T02:25:29.860Z,1.92
2018-11-25T02:26:29.867Z,1.91
2018-11-25T02:27:29.829Z,1.91
2018-11-25T02:28:29.821Z,1.92
2018-11-25T02:29:29.813Z,1.92
2018-11-25T02:30:29.825Z,1.92
2018-11-25T02:31:29.789Z,1.99
2018-11-25T02:32:29.810Z,1.85
2018-11-25T02:33:29.782Z,1.89
2018-11-25T02:34:29.762Z,1.91
2018-11-25T02:35:29.741Z,1.94
2018-11-25T02:36:29.759Z,1.87
2018-11-25T02:37:29.745Z,1.92
2018-11-25T02:38:29.771Z,1.87
2018-11-25T02:39:29.704Z,1.85
2018-11-25T02:40:29.727Z,1.77
2018-11-25T02:41:29.693Z,1.81
2018-11-25T02:42:29.726Z,1.92
2018-11-25T02:43:29.661Z,1.87
2018-11-25T02:44:29.720Z,1.81
2018-11-25T02:45:29.637Z,1.77
2018-11-25T02:46:29.628Z,1.84
2018-11-25T02:47:29.615Z,1.77
2018-11-25T02:48:29.607Z,1.87
2018-11-25T02:49:29.672Z,1.89
2018-11-25T02:50:29.653Z,1.87
2018-11-25T02:51:29.593Z,1.81
2018-11-25T02:52:29.567Z,1.84
2018-11-25T02:53:29.556Z,1.89
2018-11-25T02:54:29.545Z,1.77
2018-11-25T02:55:29.534Z,1.87
2018-11-25T02:56:29.563Z,1.77
2018-11-25T02:57:29.541Z,1.80
2018-11-25T02:58:29.505Z,1.81
2018-11-25T02:59:29.492Z,1.81
2018-11-25T03:00:29.483Z,1.78
2018-11-25T03:01:29.471Z,1.78
2018-11-25T03:02:29.494Z,1.78
2018-11-25T03:03:29.475Z,1.78
2018-11-25T03:04:29.439Z,1.85
2018-11-25T03:05:29.508Z,1.80
2018-11-25T03:06:29.419Z,1.78
2018-11-25T03:07:29.409Z,1.84
2018-11-25T03:08:29.458Z,1.78
2018-11-25T03:09:29.386Z,1.74
2018-11-25T03:10:29.394Z,1.76
2018-11-25T03:11:29.452Z,1.77
2018-11-25T03:12:29.362Z,1.78
2018-11-25T03:13:29.362Z,1.85
2018-11-25T03:14:29.377Z,1.84
2018-11-25T03:15:29.329Z,1.85
2018-11-25T03:16:29.341Z,1.85
2018-11-25T03:17:29.306Z,1.87
2018-11-25T03:18:29.293Z,1.85
2018-11-25T03:19:29.283Z,1.85
2018-11-25T03:20:29.329Z,1.89
2018-11-25T03:21:29.272Z,1.84
2018-11-25T03:22:29.270Z,1.89
2018-11-25T03:23:29.278Z,1.87
2018-11-25T03:24:29.232Z,1.85
2018-11-25T03:25:29.219Z,1.80
2018-11-25T03:26:29.249Z,1.84
2018-11-25T03:27:29.207Z,1.94
2018-11-25T03:28:29.187Z,1.91
2018-11-25T03:29:29.216Z,1.91
2018-11-25T03:30:29.171Z,1.91
2018-11-25T03:31:29.165Z,1.99
2018-11-25T03:32:29.176Z,1.94
2018-11-25T03:33:29.201Z,1.99
2018-11-25T03:34:29.146Z,1.89
2018-11-25T03:35:29.215Z,1.99
2018-11-25T03:36:29.111Z,1.91
2018-11-25T03:37:29.100Z,1.94
2018-11-25T03:38:29.151Z,1.91
2018-11-25T03:39:29.087Z,1.94
2018-11-25T03:40:29.072Z,1.95
2018-11-25T03:41:29.106Z,1.84
2018-11-25T03:42:29.055Z,1.81
2018-11-25T03:43:29.056Z,1.80
2018-11-25T03:44:29.068Z,1.84
2018-11-25T03:45:29.011Z,1.84
2018-11-25T03:46:29.001Z,1.80
2018-11-25T03:47:29.016Z,1.73
2018-11-25T03:48:28.980Z,1.84
2018-11-25T03:49:28.968Z,1.84
2018-11-25T03:50:28.992Z,1.76
2018-11-25T03:51:28.951Z,1.87
2018-11-25T03:52:28.947Z,1.84
2018-11-25T03:53:28.924Z,1.84
2018-11-25T03:54:29.114Z,1.84
2018-11-25T03:55:28.916Z,1.87
2018-11-25T03:56:28.927Z,1.87
2018-11-25T03:57:28.899Z,1.77
2018-11-25T03:58:28.897Z,1.77
2018-11-25T03:59:28.864Z,1.77
2018-11-25T04:00:28.859Z,1.76
2018-11-25T04:01:28.897Z,1.70
2018-11-25T04:02:28.863Z,1.77
2018-11-25T04:03:28.829Z,1.70
2018-11-25T04:04:28.812Z,1.74
2018-11-25T04:05:28.975Z,1.84
2018-11-25T04:06:28.822Z,1.80
2018-11-25T04:07:28.816Z,1.81
2018-11-25T04:08:28.772Z,1.77
2018-11-25T04:09:28.761Z,1.76
2018-11-25T04:10:28.777Z,1.77
2018-11-25T04:11:28.748Z,1.87
2018-11-25T04:12:28.794Z,1.84
2018-11-25T04:13:28.719Z,1.77
2018-11-25T04:14:28.715Z,1.73
2018-11-25T04:15:28.704Z,1.80
2018-11-25T04:16:28.688Z,1.73
2018-11-25T04:17:28.709Z,1.74
2018-11-25T04:18:28.706Z,1.81
2018-11-25T04:19:28.660Z,1.76
2018-11-25T04:20:28.649Z,1.78
2018-11-25T04:21:28.649Z,1.77
2018-11-25T04:22:28.654Z,1.78
2018-11-25T04:23:28.621Z,1.74
2018-11-25T04:24:28.651Z,1.73
2018-11-25T04:25:28.597Z,1.70
2018-11-25T04:26:28.581Z,1.71
2018-11-25T04:27:29.818Z,1.77
2018-11-25T04:28:28.563Z,1.67
2018-11-25T04:29:28.551Z,1.68
2018-11-25T04:30:28.552Z,1.78
2018-11-25T04:31:28.532Z,1.70
2018-11-25T04:32:28.549Z,1.77
2018-11-25T04:33:28.514Z,1.68
2018-11-25T04:34:28.499Z,1.70
2018-11-25T04:35:28.502Z,1.70
2018-11-25T04:36:28.533Z,1.74
2018-11-25T04:37:28.495Z,1.73
2018-11-25T04:38:28.457Z,1.67
2018-11-25T04:39:28.447Z,1.70
2018-11-25T04:40:28.438Z,1.74
2018-11-25T04:41:28.430Z,1.71
2018-11-25T04:42:28.470Z,1.70
2018-11-25T04:43:28.403Z,1.67
2018-11-25T04:44:28.395Z,1.71
2018-11-25T04:45:28.383Z,1.70
2018-11-25T04:46:28.374Z,1.73
2018-11-25T04:47:28.390Z,1.76
2018-11-25T04:48:28.387Z,1.66
2018-11-25T04:49:28.342Z,1.63
2018-11-25T04:50:28.332Z,1.67
2018-11-25T04:51:28.321Z,1.68
2018-11-25T04:52:28.342Z,1.76
2018-11-25T04:53:28.306Z,1.76
2018-11-25T04:54:28.297Z,1.70
2018-11-25T04:55:28.310Z,1.76
2018-11-25T04:56:28.300Z,1.67
2018-11-25T04:57:28.286Z,1.70
2018-11-25T04:58:28.285Z,1.71
2018-11-25T04:59:28.237Z,1.68
2018-11-25T05:00:28.234Z,1.66
2018-11-25T05:01:28.247Z,1.67
2018-11-25T05:02:28.233Z,1.63
2018-11-25T05:03:28.196Z,1.66
2018-11-25T05:04:28.186Z,1.68
2018-11-25T05:05:28.181Z,1.74
2018-11-25T05:06:28.188Z,1.68
2018-11-25T05:07:28.183Z,1.67
2018-11-25T05:08:28.146Z,1.59
2018-11-25T05:09:28.166Z,1.63
2018-11-25T05:10:28.123Z,1.67
2018-11-25T05:11:28.124Z,1.62
2018-11-25T05:12:28.141Z,1.59
2018-11-25T05:13:28.092Z,1.62
2018-11-25T05:14:28.083Z,1.67
2018-11-25T05:15:28.071Z,1.68
2018-11-25T05:16:28.061Z,1.68
2018-11-25T05:17:28.084Z,1.62
2018-11-25T05:18:28.055Z,1.62
2018-11-25T05:19:28.029Z,1.67
2018-11-25T05:20:28.021Z,1.63
2018-11-25T05:21:28.009Z,1.66
2018-11-25T05:22:27.999Z,1.68
2018-11-25T05:23:28.016Z,1.66
2018-11-25T05:24:28.001Z,1.70
2018-11-25T05:25:27.999Z,1.73
2018-11-25T05:26:27.956Z,1.68
2018-11-25T05:27:27.946Z,1.73
2018-11-25T05:28:27.969Z,1.67
2018-11-25T05:29:27.927Z,1.66
2018-11-25T05:30:27.914Z,1.66
2018-11-25T05:31:28.262Z,1.63
2018-11-25T05:32:27.893Z,1.67
2018-11-25T05:33:27.913Z,1.66
2018-11-25T05:34:27.875Z,1.59
2018-11-25T05:35:27.865Z,1.66
2018-11-25T05:36:27.854Z,1.67
2018-11-25T05:37:27.882Z,1.63
2018-11-25T05:38:27.871Z,1.70
2018-11-25T05:39:27.827Z,1.66
2018-11-25T05:40:27.814Z,1.70
2018-11-25T05:41:27.808Z,1.67
2018-11-25T05:42:27.790Z,1.70
2018-11-25T05:43:27.826Z,1.63
2018-11-25T05:44:27.772Z,1.63
2018-11-25T05:45:27.763Z,1.70
2018-11-25T05:46:27.920Z,1.63
2018-11-25T05:47:27.751Z,1.63
2018-11-25T05:48:27.784Z,1.70
2018-11-25T05:49:27.746Z,1.62
2018-11-25T05:50:27.741Z,1.60
2018-11-25T05:51:27.751Z,1.66
2018-11-25T05:52:27.706Z,1.63
2018-11-25T05:53:27.704Z,1.67
2018-11-25T05:54:27.684Z,1.68
2018-11-25T05:55:27.677Z,1.70
2018-11-25T05:56:27.676Z,1.70
2018-11-25T05:57:27.685Z,1.63
2018-11-25T05:58:27.697Z,1.63
2018-11-25T05:59:27.639Z,1.62
2018-11-25T06:00:27.627Z,1.63
2018-11-25T06:01:27.612Z,1.68
2018-11-25T06:02:27.609Z,1.60
2018-11-25T06:03:27.650Z,1.63
2018-11-25T06:04:27.580Z,1.70
2018-11-25T06:05:27.566Z,1.67
2018-11-25T06:06:27.558Z,1.73
2018-11-25T06:07:27.548Z,1.73
2018-11-25T06:08:27.580Z,1.67
2018-11-25T06:09:27.568Z,1.60
2018-11-25T06:10:27.514Z,1.67
2018-11-25T06:11:27.499Z,1.60
2018-11-25T06:12:27.511Z,1.63
2018-11-25T06:13:27.524Z,1.63
2018-11-25T06:14:27.474Z,1.68
2018-11-25T06:15:27.473Z,1.68
2018-11-25T06:16:27.516Z,1.66
2018-11-25T06:17:27.443Z,1.67
2018-11-25T06:18:27.471Z,1.62
2018-11-25T06:19:27.432Z,1.67
2018-11-25T06:20:27.416Z,1.67
2018-11-25T06:21:27.406Z,1.68
2018-11-25T06:22:27.430Z,1.63
2018-11-25T06:23:27.416Z,1.74
2018-11-25T06:24:27.377Z,1.67
2018-11-25T06:25:27.359Z,1.66
2018-11-25T06:26:27.337Z,1.66
2018-11-25T06:27:27.327Z,1.63
2018-11-25T06:28:27.378Z,1.58
2018-11-25T06:29:27.329Z,1.58
2018-11-25T06:30:27.298Z,1.66
2018-11-25T06:31:28.067Z,1.63
2018-11-25T06:32:27.273Z,1.70
2018-11-25T06:33:27.301Z,1.70
2018-11-25T06:34:27.314Z,1.66
2018-11-25T06:35:27.247Z,1.68
2018-11-25T06:36:27.232Z,1.66
2018-11-25T06:37:27.223Z,1.60
2018-11-25T06:38:27.248Z,1.59
2018-11-25T06:39:27.214Z,1.66
2018-11-25T06:40:27.231Z,1.63
2018-11-25T06:41:33.826Z,1.62
2018-11-25T06:42:28.169Z,1.62
2018-11-25T06:43:27.202Z,1.58
2018-11-25T06:44:27.158Z,1.62
2018-11-25T06:45:27.146Z,1.66
2018-11-25T06:46:27.143Z,1.63
2018-11-25T06:48:18.513Z,1.63
2018-11-25T06:49:18.472Z,1.60
2018-11-25T06:50:18.510Z,1.67
2018-11-25T06:51:18.453Z,1.68
2018-11-25T06:52:18.452Z,1.70
2018-11-25T06:53:18.505Z,1.63
2018-11-25T06:54:18.428Z,1.67
2018-11-25T06:55:18.413Z,1.62
2018-11-25T06:56:18.400Z,1.74
2018-11-25T06:57:18.392Z,1.73
2018-11-25T06:58:18.435Z,1.76
2018-11-25T06:59:18.378Z,1.76
2018-11-25T07:00:18.361Z,1.71
2018-11-25T07:01:18.383Z,1.70
2018-11-25T07:02:18.348Z,1.68
2018-11-25T07:03:18.545Z,1.67
2018-11-25T07:04:18.319Z,1.68
2018-11-25T07:05:18.403Z,1.63
2018-11-25T07:06:18.315Z,1.66
2018-11-25T07:07:18.288Z,1.66
2018-11-25T07:08:18.316Z,1.70
2018-11-25T07:09:18.273Z,1.62
2018-11-25T07:10:18.369Z,1.67
2018-11-25T07:11:18.287Z,1.67
2018-11-25T07:12:18.265Z,1.60
2018-11-25T07:13:18.254Z,1.70
2018-11-25T07:14:18.216Z,1.67
2018-11-25T07:15:18.225Z,1.71
2018-11-25T07:16:18.304Z,1.63
2018-11-25T07:17:18.285Z,1.76
2018-11-25T07:18:18.452Z,1.73
2018-11-25T07:19:18.317Z,1.78
2018-11-25T07:20:18.215Z,1.70
2018-11-25T07:21:18.238Z,1.67
2018-11-25T07:22:18.142Z,1.78
2018-11-25T07:23:18.359Z,1.71
2018-11-25T07:24:18.134Z,1.76
2018-11-25T07:25:18.167Z,1.76
2018-11-25T07:26:18.144Z,1.70
2018-11-25T07:27:18.340Z,1.71
2018-11-25T07:28:18.797Z,1.66
2018-11-25T07:29:18.070Z,1.73
2018-11-25T07:30:18.262Z,1.73
2018-11-25T07:31:18.051Z,1.78
2018-11-25T07:32:18.055Z,1.77
2018-11-25T07:33:19.362Z,1.77
2018-11-25T07:34:18.125Z,1.71
2018-11-25T07:35:18.152Z,1.76
2018-11-25T07:36:18.031Z,1.77
2018-11-25T07:37:18.131Z,1.80
2018-11-25T07:38:18.126Z,1.74
2018-11-25T07:39:17.968Z,1.73
2018-11-25T07:40:17.948Z,1.84
2018-11-25T07:41:17.964Z,1.87
2018-11-25T07:42:17.953Z,1.78
2018-11-25T07:43:18.155Z,1.77
2018-11-25T07:44:17.912Z,1.76
2018-11-25T07:45:18.092Z,1.71
2018-11-25T07:46:17.933Z,1.73
2018-11-25T07:47:17.981Z,1.74
2018-11-25T07:48:17.895Z,1.80
2018-11-25T07:49:17.934Z,1.76
2018-11-25T07:50:17.845Z,1.78
2018-11-25T07:51:17.830Z,1.77
2018-11-25T07:52:17.832Z,1.77
2018-11-25T07:53:17.867Z,1.77
2018-11-25T07:54:17.808Z,1.70
2018-11-25T07:55:17.879Z,1.71
2018-11-25T07:56:17.781Z,1.73
2018-11-25T07:57:17.857Z,1.76
2018-11-25T07:58:17.788Z,1.77
2018-11-25T07:59:25.330Z,1.81
2018-11-25T08:00:17.768Z,1.76
2018-11-25T08:01:17.739Z,1.74
2018-11-25T08:02:17.765Z,1.71
2018-11-25T08:03:17.794Z,1.81
2018-11-25T08:04:17.702Z,1.80
2018-11-25T08:05:17.709Z,1.81
2018-11-25T08:06:17.691Z,1.80
2018-11-25T08:07:17.670Z,1.87
2018-11-25T08:08:17.694Z,1.80
2018-11-25T08:09:17.692Z,1.76
2018-11-25T08:10:17.663Z,1.81
2018-11-25T08:11:17.632Z,1.84
2018-11-25T08:12:17.768Z,1.77
2018-11-25T08:13:17.982Z,1.84
2018-11-25T08:14:17.697Z,1.77
2018-11-25T08:15:17.648Z,1.78
2018-11-25T08:16:17.883Z,1.81
2018-11-25T08:17:17.564Z,1.81
2018-11-25T08:18:17.578Z,1.77
2018-11-25T08:19:17.623Z,1.85
2018-11-25T08:20:17.545Z,1.84
2018-11-25T08:21:17.527Z,1.80
2018-11-25T08:22:17.540Z,1.88
2018-11-25T08:23:17.542Z,1.81
2018-11-25T08:24:17.499Z,1.92
2018-11-25T08:25:17.487Z,1.87
2018-11-25T08:26:17.474Z,1.81
2018-11-25T08:27:18.091Z,1.77
2018-11-25T08:28:17.495Z,1.76
2018-11-25T08:29:17.814Z,1.80
2018-11-25T08:30:17.428Z,1.81
2018-11-25T08:31:17.419Z,1.88
2018-11-25T08:32:17.408Z,1.80
2018-11-25T08:33:17.437Z,1.81
2018-11-25T08:34:17.431Z,1.81
2018-11-25T08:35:17.387Z,1.85
2018-11-25T08:36:17.373Z,1.81
2018-11-25T08:37:17.358Z,1.89
2018-11-25T08:38:17.476Z,1.85
2018-11-25T08:39:17.514Z,1.99
2018-11-25T08:40:17.355Z,1.89
2018-11-25T08:41:17.331Z,1.92
2018-11-25T08:42:17.308Z,1.89
2018-11-25T08:43:17.323Z,1.97
2018-11-25T08:44:17.591Z,1.89
2018-11-25T08:45:17.296Z,1.92
2018-11-25T08:46:17.266Z,1.91
2018-11-25T08:47:17.280Z,1.92
2018-11-25T08:48:17.279Z,1.99
2018-11-25T08:49:17.236Z,1.94
2018-11-25T08:50:17.242Z,1.94
2018-11-25T08:51:17.215Z,2.07
2018-11-25T08:52:17.206Z,2.04
2018-11-25T08:53:17.222Z,2.11
2018-11-25T08:54:17.185Z,2.10
2018-11-25T08:55:17.232Z,2.08
2018-11-25T08:56:17.163Z,2.02
2018-11-25T08:57:17.152Z,2.08
2018-11-25T08:58:17.172Z,2.10
2018-11-25T08:59:17.143Z,2.08
2018-11-25T09:00:17.134Z,2.04
2018-11-25T09:01:17.114Z,2.08
2018-11-25T09:02:17.118Z,2.11
2018-11-25T09:03:17.119Z,2.04
2018-11-25T09:04:17.174Z,2.04
2018-11-25T09:05:17.080Z,2.08
2018-11-25T09:06:17.078Z,2.10
2018-11-25T09:07:17.064Z,2.07
2018-11-25T09:08:17.118Z,2.06
2018-11-25T09:09:17.105Z,2.07
2018-11-25T09:10:17.036Z,2.06
2018-11-25T09:11:17.021Z,2.10
2018-11-25T09:12:17.181Z,2.08
2018-11-25T09:13:17.032Z,2.17
2018-11-25T09:14:16.981Z,2.06
2018-11-25T09:15:16.975Z,2.10
2018-11-25T09:16:16.969Z,2.18
2018-11-25T09:17:16.949Z,2.11
2018-11-25T09:18:16.971Z,2.15
2018-11-25T09:19:17.006Z,2.17
2018-11-25T09:20:16.928Z,2.14
2018-11-25T09:21:17.181Z,2.17
2018-11-25T09:22:16.972Z,2.14
2018-11-25T09:23:16.918Z,2.15
2018-11-25T09:24:16.884Z,2.20
2018-11-25T09:25:16.885Z,2.20
2018-11-25T09:26:16.870Z,2.18
2018-11-25T09:27:17.052Z,2.20
2018-11-25T09:28:16.861Z,2.14
2018-11-25T09:29:16.832Z,2.17
2018-11-25T09:30:16.885Z,2.18
2018-11-25T09:31:16.837Z,2.18
2018-11-25T09:32:22.934Z,2.20
2018-11-25T09:33:17.827Z,2.15
2018-11-25T09:34:16.783Z,2.13
2018-11-25T09:35:16.764Z,2.14
2018-11-25T09:36:16.807Z,2.20
2018-11-25T09:37:16.784Z,2.18
2018-11-25T09:38:16.764Z,2.17
2018-11-25T09:39:16.731Z,2.18
2018-11-25T09:40:16.720Z,2.18
2018-11-25T09:41:16.710Z,2.25
2018-11-25T09:42:16.707Z,2.29
2018-11-25T09:43:16.718Z,2.26
2018-11-25T09:44:16.702Z,2.35
2018-11-25T09:45:17.022Z,2.33
2018-11-25T09:46:16.669Z,2.32
2018-11-25T09:47:16.706Z,2.29
2018-11-25T09:48:16.697Z,2.29
2018-11-25T09:49:16.656Z,2.17
2018-11-25T09:50:16.620Z,2.25
2018-11-25T09:51:16.602Z,2.17
2018-11-25T09:52:16.603Z,2.14
2018-11-25T09:53:16.837Z,2.22
2018-11-25T09:54:16.576Z,2.24
2018-11-25T09:55:16.643Z,2.28
2018-11-25T09:56:16.854Z,2.32
2018-11-25T09:57:16.986Z,2.38
2018-11-25T09:58:16.581Z,2.31
2018-11-25T09:59:16.523Z,2.33
2018-11-25T10:00:16.514Z,2.25
2018-11-25T10:01:16.561Z,2.31
2018-11-25T10:02:16.485Z,2.29
2018-11-25T10:03:16.512Z,2.20
2018-11-25T10:04:16.617Z,2.29
2018-11-25T10:05:16.463Z,2.24
2018-11-25T10:06:16.509Z,2.22
2018-11-25T10:07:16.439Z,2.20
2018-11-25T10:08:16.470Z,2.26
2018-11-25T10:09:16.420Z,2.24
2018-11-25T10:10:16.414Z,2.18
2018-11-25T10:11:16.485Z,2.24
2018-11-25T10:12:16.395Z,2.24
2018-11-25T10:13:16.403Z,2.20
2018-11-25T10:14:16.363Z,2.31
2018-11-25T10:15:16.437Z,2.15
2018-11-25T10:16:16.341Z,2.29
2018-11-25T10:17:16.343Z,2.26
2018-11-25T10:18:16.356Z,2.17
2018-11-25T10:19:16.313Z,2.26
2018-11-25T10:20:16.446Z,2.29
2018-11-25T10:21:16.290Z,2.28
2018-11-25T10:22:16.299Z,2.36
2018-11-25T10:23:16.299Z,2.46
2018-11-25T10:24:16.266Z,2.46
2018-11-25T10:25:16.264Z,2.38
2018-11-25T10:26:16.258Z,2.39
2018-11-25T10:27:16.304Z,2.39
2018-11-25T10:28:16.639Z,2.32
2018-11-25T10:29:16.221Z,2.38
2018-11-25T10:30:16.210Z,2.49
2018-11-25T10:31:16.243Z,2.50
2018-11-25T10:32:16.183Z,2.44
2018-11-25T10:33:16.195Z,2.42
2018-11-25T10:34:16.284Z,2.42
2018-11-25T10:35:16.163Z,2.43
2018-11-25T10:36:16.155Z,2.28
2018-11-25T10:37:16.132Z,2.38
2018-11-25T10:38:16.153Z,2.44
2018-11-25T10:39:17.025Z,2.38
2018-11-25T10:40:16.123Z,2.42
2018-11-25T10:41:16.289Z,2.38
2018-11-25T10:42:16.098Z,2.47
2018-11-25T10:43:16.105Z,2.50
2018-11-25T10:44:16.088Z,2.60
2018-11-25T10:45:16.054Z,2.60
2018-11-25T10:46:16.045Z,2.62
2018-11-25T10:47:16.046Z,2.61
2018-11-25T10:48:16.089Z,2.53
2018-11-25T10:49:16.089Z,2.65
2018-11-25T10:50:16.004Z,2.57
2018-11-25T10:51:15.988Z,2.72
2018-11-25T10:52:15.979Z,2.67
2018-11-25T10:53:16.012Z,2.68
2018-11-25T10:54:15.958Z,2.69
2018-11-25T10:55:16.088Z,2.69
2018-11-25T10:56:16.806Z,2.53
2018-11-25T10:57:15.933Z,2.68
2018-11-25T10:58:16.074Z,2.65
2018-11-25T10:59:15.914Z,2.75
2018-11-25T11:00:15.912Z,2.79
2018-11-25T11:01:15.920Z,2.77
2018-11-25T11:02:15.879Z,2.87
2018-11-25T11:03:15.907Z,2.90
2018-11-25T11:04:15.890Z,2.92
2018-11-25T11:05:15.872Z,2.77
2018-11-25T11:06:15.836Z,2.83
2018-11-25T11:07:15.818Z,2.82
2018-11-25T11:08:15.859Z,2.77
2018-11-25T11:09:15.805Z,2.82
2018-11-25T11:10:15.789Z,2.77
2018-11-25T11:11:15.811Z,2.75
2018-11-25T11:12:15.780Z,2.74
2018-11-25T11:13:15.789Z,2.77
2018-11-25T11:14:15.746Z,2.79
2018-11-25T11:15:15.749Z,2.80
2018-11-25T11:16:15.729Z,2.80
2018-11-25T11:17:15.717Z,2.69
2018-11-25T11:18:15.812Z,2.71
2018-11-25T11:19:15.694Z,2.80
2018-11-25T11:20:15.697Z,2.79
2018-11-25T11:21:15.675Z,2.87
2018-11-25T11:22:15.669Z,2.75
2018-11-25T11:23:15.685Z,2.79
2018-11-25T11:24:15.726Z,2.82
2018-11-25T11:25:15.688Z,2.85
2018-11-25T11:26:15.623Z,2.82
2018-11-25T11:27:15.618Z,2.82
2018-11-25T11:28:15.642Z,2.87
2018-11-25T11:29:15.654Z,2.93
2018-11-25T11:30:15.587Z,2.90
2018-11-25T11:31:15.573Z,2.93
2018-11-25T11:32:15.600Z,2.87
2018-11-25T11:33:15.590Z,2.85
2018-11-25T11:34:15.541Z,2.90
2018-11-25T11:35:15.540Z,2.93
2018-11-25T11:36:15.519Z,2.83
2018-11-25T11:37:15.519Z,2.82
2018-11-25T11:38:15.661Z,2.80
2018-11-25T11:39:15.517Z,2.85
2018-11-25T11:40:15.508Z,2.93
2018-11-25T11:41:15.469Z,2.89
2018-11-25T11:42:15.501Z,2.93
2018-11-25T11:43:15.478Z,2.75
2018-11-25T11:44:15.437Z,2.82
2018-11-25T11:45:15.485Z,2.80
2018-11-25T11:46:15.433Z,2.82
2018-11-25T11:47:15.444Z,2.75
2018-11-25T11:48:15.423Z,2.77
2018-11-25T11:49:15.383Z,2.83
2018-11-25T11:50:15.378Z,2.85
2018-11-25T11:51:15.366Z,2.83
2018-11-25T11:52:15.384Z,2.87
2018-11-25T11:53:15.447Z,2.89
2018-11-25T11:54:15.361Z,2.86
2018-11-25T11:55:15.341Z,2.87
2018-11-25T11:56:15.481Z,2.93
2018-11-25T11:57:15.312Z,2.92
2018-11-25T11:58:15.736Z,2.90
2018-11-25T11:59:15.300Z,2.97
2018-11-25T12:00:15.278Z,2.87
2018-11-25T12:01:15.275Z,3.03
2018-11-25T12:02:15.260Z,2.90
2018-11-25T12:03:15.277Z,2.89
2018-11-25T12:04:15.227Z,3.01
2018-11-25T12:05:15.219Z,2.90
2018-11-25T12:06:15.277Z,3.01
2018-11-25T12:07:15.206Z,2.93
2018-11-25T12:08:15.227Z,2.93
2018-11-25T12:09:15.226Z,2.97
2018-11-25T12:10:24.724Z,2.87
2018-11-25T12:11:15.156Z,2.92
2018-11-25T12:12:15.149Z,2.93
2018-11-25T12:13:15.226Z,3.05
2018-11-25T12:14:15.131Z,2.98
2018-11-25T12:15:15.119Z,3.03
2018-11-25T12:16:15.163Z,3.07
2018-11-25T12:17:15.137Z,3.01
2018-11-25T12:18:15.114Z,2.98
2018-11-25T12:19:15.074Z,2.89
2018-11-25T12:20:15.074Z,3.00
2018-11-25T12:21:15.122Z,3.00
2018-11-25T12:22:15.072Z,3.01
2018-11-25T12:23:15.070Z,2.93
2018-11-25T12:24:15.027Z,2.98
2018-11-25T12:25:15.026Z,2.92
2018-11-25T12:26:15.009Z,3.03
2018-11-25T12:27:15.041Z,3.00
2018-11-25T12:28:15.011Z,3.08
2018-11-25T12:29:14.972Z,3.05
2018-11-25T12:30:14.967Z,3.05
2018-11-25T12:31:14.969Z,3.08
2018-11-25T12:32:14.951Z,3.00
2018-11-25T12:33:15.009Z,3.13
2018-11-25T12:34:14.921Z,3.10
2018-11-25T12:35:14.914Z,3.14
2018-11-25T12:36:15.122Z,3.07
2018-11-25T12:37:14.897Z,3.07
2018-11-25T12:38:14.914Z,3.05
2018-11-25T12:39:14.911Z,3.11
2018-11-25T12:40:15.236Z,3.10
2018-11-25T12:41:14.847Z,3.11
2018-11-25T12:42:23.471Z,3.13
2018-11-25T12:43:14.856Z,3.10
2018-11-25T12:44:14.817Z,3.11
2018-11-25T12:45:14.873Z,3.13
2018-11-25T12:46:14.900Z,3.18
2018-11-25T12:47:14.840Z,3.13
2018-11-25T12:48:14.821Z,3.18
2018-11-25T12:49:14.768Z,3.08
2018-11-25T12:50:15.131Z,3.23
2018-11-25T12:51:14.745Z,3.11
2018-11-25T12:52:14.738Z,3.16
2018-11-25T12:53:15.187Z,3.10
2018-11-25T12:54:14.718Z,3.07
2018-11-25T12:55:14.703Z,3.04
2018-11-25T12:56:14.749Z,3.07
2018-11-25T12:57:14.695Z,3.00
2018-11-25T12:58:14.708Z,3.03
2018-11-25T12:59:14.748Z,3.14
2018-11-25T13:00:14.666Z,3.07
2018-11-25T13:01:14.662Z,3.03
2018-11-25T13:02:14.642Z,2.95
2018-11-25T13:03:14.823Z,3.10
2018-11-25T13:04:14.614Z,3.00
2018-11-25T13:05:14.606Z,3.07
2018-11-25T13:06:14.589Z,2.92
2018-11-25T13:07:14.671Z,2.97
2018-11-25T13:08:15.008Z,2.92
2018-11-25T13:09:14.562Z,2.92
2018-11-25T13:10:14.554Z,3.00
2018-11-25T13:11:14.540Z,2.93
2018-11-25T13:12:14.570Z,3.07
2018-11-25T13:13:14.543Z,2.92
2018-11-25T13:14:14.507Z,3.08
2018-11-25T13:15:14.553Z,2.89
2018-11-25T13:16:14.493Z,2.97
2018-11-25T13:17:14.525Z,3.04
2018-11-25T13:18:14.501Z,3.00
2018-11-25T13:19:14.456Z,2.89